Time,TemperatureF,DewpointF,PressureIn,WindDirection,WindDirectionDegrees,WindSpeedMPH,WindSpeedGustMPH,Humidity,HourlyPrecipIn,Conditions,Clouds,dailyrainin,SoftwareType,DateUTC
2013-05-29 09:38:00,71.1,32.5,29.65,NNE,13,6.0,6.0,24,0.00,,,0.00,Wunderground v.1.15,2013-05-29 17:38:00,
2013-05-29 09:43:00,70.9,32.3,29.65,ENE,61,0.0,6.0,24,0.00,,,0.00,Wunderground v.1.15,2013-05-29 17:43:00,
2013-05-29 09:48:00,71.3,32.6,29.65,NNE,15,0.0,2.0,24,0.00,,,0.00,Wunderground v.1.15,2013-05-29 17:48:00,
2013-05-29 09:53:00,71.6,31.8,29.65,North,360,0.0,3.0,23,0.00,,,0.00,Wunderground v.1.15,2013-05-29 17:53:00,
2013-05-29 09:58:00,71.8,33.0,29.65,North,5,5.0,5.0,24,0.00,,,0.00,Wunderground v.1.15,2013-05-29 17:58:00,
2013-05-29 10:03:00,72.0,33.2,29.65,ENE,69,0.0,2.0,24,0.00,,,0.00,Wunderground v.1.15,2013-05-29 18:03:00,
2013-05-29 18:44:00,79.0,25.7,29.60,ENE,61,1.0,3.0,14,0.00,,,0.00,Wunderground v.1.15,2013-05-30 02:44:00,
2013-05-29 18:49:00,79.0,27.4,29.61,North,360,1.0,12.0,15,0.00,,,0.00,Wunderground v.1.15,2013-05-30 02:49:00,
2013-05-29 18:54:00,79.0,25.7,29.61,NNW,343,4.0,9.0,14,0.00,,,0.00,Wunderground v.1.15,2013-05-30 02:54:00,
2013-05-29 18:59:00,78.6,27.1,29.61,NE,46,1.0,9.0,15,0.00,,,0.00,Wunderground v.1.15,2013-05-30 02:59:00,
2013-05-29 19:04:00,78.8,27.2,29.61,NNE,12,1.0,4.0,15,0.00,,,0.00,Wunderground v.1.15,2013-05-30 03:04:00,
2013-05-29 19:09:00,78.8,27.2,29.61,NE,51,3.0,15.0,15,0.00,,,0.00,Wunderground v.1.15,2013-05-30 03:09:00,
2013-05-29 19:14:00,78.6,27.1,29.61,NNE,15,3.0,5.0,15,0.00,,,0.00,Wunderground v.1.15,2013-05-30 03:14:00,
2013-05-29 19:19:00,78.8,27.2,29.61,East,82,0.0,13.0,15,0.00,,,0.00,Wunderground v.1.15,2013-05-30 03:19:00,
2013-05-29 19:24:00,78.6,27.1,29.61,East,84,0.0,10.0,15,0.00,,,0.00,Wunderground v.1.15,2013-05-30 03:24:00,
2013-05-29 19:29:00,78.6,28.6,29.61,NW,318,4.0,10.0,16,0.00,,,0.00,Wunderground v.1.15,2013-05-30 03:29:00,
2013-05-29 19:34:00,78.6,27.1,29.61,WNW,296,2.0,9.0,15,0.00,,,0.00,Wunderground v.1.15,2013-05-30 03:34:00,
2013-05-29 19:39:00,78.6,28.6,29.61,WNW,283,2.0,9.0,16,0.00,,,0.00,Wunderground v.1.15,2013-05-30 03:39:00,
2013-05-29 19:44:00,78.6,28.6,29.61,North,360,7.0,7.0,16,0.00,,,0.00,Wunderground v.1.15,2013-05-30 03:44:00,
2013-05-29 19:49:00,78.6,28.6,29.61,NNW,338,1.0,8.0,16,0.00,,,0.00,Wunderground v.1.15,2013-05-30 03:49:00,
2013-05-29 19:54:00,78.3,28.4,29.61,West,277,4.0,6.0,16,0.00,,,0.00,Wunderground v.1.15,2013-05-30 03:54:00,
2013-05-29 19:59:00,78.3,28.4,29.61,North,5,4.0,6.0,16,0.00,,,0.00,Wunderground v.1.15,2013-05-30 03:59:00,
2013-05-29 20:01:00,78.3,28.4,29.61,East,80,6.0,7.0,16,0.00,,,0.00,Wunderground v.1.15,2013-05-30 04:01:00,
2013-05-29 20:02:00,78.1,28.2,29.61,NNE,12,1.0,7.0,16,0.00,,,0.00,Wunderground v.1.15,2013-05-30 04:02:00,
2013-05-29 20:07:00,78.1,28.2,29.61,North,355,3.0,14.0,16,0.00,,,0.00,Wunderground v.1.15,2013-05-30 04:07:00,
2013-05-29 20:12:00,77.9,29.5,29.61,NNE,30,0.0,3.0,17,0.00,,,0.00,Wunderground v.1.15,2013-05-30 04:12:00,
2013-05-29 20:17:00,77.9,29.5,29.61,North,360,0.0,6.0,17,0.00,,,0.00,Wunderground v.1.15,2013-05-30 04:17:00,
2013-05-29 20:22:00,77.9,29.5,29.61,North,355,2.0,5.0,17,0.00,,,0.00,Wunderground v.1.15,2013-05-30 04:22:00,
2013-05-29 20:27:00,77.7,29.4,29.61,ENE,68,1.0,8.0,17,0.00,,,0.00,Wunderground v.1.15,2013-05-30 04:27:00,
2013-05-29 20:32:00,77.6,29.3,29.61,NNW,341,4.0,9.0,17,0.00,,,0.00,Wunderground v.1.15,2013-05-30 04:32:00,
2013-05-29 20:37:00,77.6,29.3,29.61,West,272,6.0,9.0,17,0.00,,,0.00,Wunderground v.1.15,2013-05-30 04:37:00,
2013-05-29 20:42:00,77.4,30.5,29.61,ENE,74,0.0,7.0,18,0.00,,,0.00,Wunderground v.1.15,2013-05-30 04:42:00,
2013-05-29 20:47:00,77.2,30.4,29.61,NNE,13,5.0,7.0,18,0.00,,,0.00,Wunderground v.1.15,2013-05-30 04:47:00,
2013-05-29 20:52:00,77.0,30.2,29.61,North,360,5.0,9.0,18,0.00,,,0.00,Wunderground v.1.15,2013-05-30 04:52:00,
2013-05-29 20:57:00,76.7,31.3,29.61,NNE,19,1.0,9.0,19,0.00,,,0.00,Wunderground v.1.15,2013-05-30 04:57:00,
2013-05-29 21:02:00,76.1,30.8,29.61,NE,35,1.0,4.0,19,0.00,,,0.00,Wunderground v.1.15,2013-05-30 05:02:00,
2013-05-29 21:07:00,76.0,30.7,29.61,NW,325,2.0,10.0,19,0.00,,,0.00,Wunderground v.1.15,2013-05-30 05:07:00,
2013-05-29 21:13:00,75.8,31.8,29.61,NNW,340,1.0,6.0,20,0.00,,,0.00,Wunderground v.1.15,2013-05-30 05:13:00,
2013-05-29 21:18:00,75.4,31.5,29.62,ENE,62,1.0,6.0,20,0.00,,,0.00,Wunderground v.1.15,2013-05-30 05:18:00,
2013-05-29 21:23:00,75.3,31.4,29.62,NNW,348,1.0,6.0,20,0.00,,,0.00,Wunderground v.1.15,2013-05-30 05:23:00,
2013-05-29 21:28:00,75.1,31.3,29.62,NNW,333,1.0,7.0,20,0.00,,,0.00,Wunderground v.1.15,2013-05-30 05:28:00,
2013-05-29 21:33:00,74.9,31.1,29.62,NNE,15,0.0,2.0,20,0.00,,,0.00,Wunderground v.1.15,2013-05-30 05:33:00,
2013-05-29 21:38:00,74.7,30.9,29.62,North,360,1.0,3.0,20,0.00,,,0.00,Wunderground v.1.15,2013-05-30 05:38:00,
2013-05-29 21:43:00,74.6,32.1,29.62,NNE,17,0.0,6.0,21,0.00,,,0.00,Wunderground v.1.15,2013-05-30 05:43:00,
2013-05-29 21:48:00,74.4,31.9,29.63,NW,315,0.0,6.0,21,0.00,,,0.00,Wunderground v.1.15,2013-05-30 05:48:00,
2013-05-29 21:53:00,74.0,31.6,29.63,NNE,31,0.0,6.0,21,0.00,,,0.00,Wunderground v.1.15,2013-05-30 05:53:00,
2013-05-29 21:58:00,73.9,31.5,29.63,NNW,346,1.0,6.0,21,0.00,,,0.00,Wunderground v.1.15,2013-05-30 05:58:00,
2013-05-29 22:03:00,73.7,31.3,29.63,NE,46,1.0,4.0,21,0.00,,,0.00,Wunderground v.1.15,2013-05-30 06:03:00,
2013-05-29 22:08:00,73.3,32.1,29.63,NE,46,0.0,7.0,22,0.00,,,0.00,Wunderground v.1.15,2013-05-30 06:08:00,
2013-05-29 22:13:00,73.0,33.0,29.63,NNW,338,0.0,3.0,23,0.00,,,0.00,Wunderground v.1.15,2013-05-30 06:13:00,
2013-05-29 22:19:00,72.7,32.7,29.63,North,349,0.0,4.0,23,0.00,,,0.00,Wunderground v.1.15,2013-05-30 06:19:00,
2013-05-29 22:24:00,72.3,32.4,29.63,ENE,59,0.0,4.0,23,0.00,,,0.00,Wunderground v.1.15,2013-05-30 06:24:00,
2013-05-29 22:29:00,72.0,32.1,29.63,NNE,14,2.0,4.0,23,0.00,,,0.00,Wunderground v.1.15,2013-05-30 06:29:00,